»·PEaware :: N4057G KSAN-KONT

N4057G :: KSAN-KONT

FLIGHT INFORMATION

Flight Status: Arrived
Operator: Privately registered:
United States
More flights under this callsign
Pilot: Johnny M. (21174)
Aircraft: CIRRUS SR-22
(SR22)
More flights by this aircraft type
Origin: KSAN San Diego Intl-Lindbergh
United States
Destination: KONT Ontario Intl
United States
More flights between these airports :: More routes between these airports
Route: OCN V23 DANAH V363 POXKU V8 PDZ
File this flight plan on PilotEdge
Remarks: TEC route SANP19
Altitude:
(Current/Filed)
6,000ft
Speed:
(Current/Filed)
175kts
Departed: 19-Jul-20 06:06 AM
Arrived: 19-Jul-20 06:55 AM
Distance/Time
Traveled:
82nm/0:49
Distance/Time
To Go:
Arrived

Flight Plot

Page will automatically refresh every two minutes.


Map Options




Map Legend


Flown Route
Filed Route
Departure Airport
Arrival Airport
Navaid (VOR, NDB)
Fix

Horizontal Profiles

Position Reports

Time Latitude Longitude Heading Altitude Ground
Speed
19-Jul-20 05:54 32.730635 -117.190994 298 21ft 0kts
19-Jul-20 05:55 32.730635 -117.190994 298 21ft 0kts
19-Jul-20 05:56 32.730635 -117.190994 298 21ft 0kts
19-Jul-20 05:57 32.730635 -117.190994 298 21ft 0kts
19-Jul-20 05:58 32.730635 -117.190994 298 21ft 0kts
19-Jul-20 05:59 32.730635 -117.190994 298 21ft 0kts
19-Jul-20 06:00 32.730635 -117.190994 298 21ft 0kts
19-Jul-20 06:01 32.730635 -117.190994 298 21ft 0kts
19-Jul-20 06:02 32.730635 -117.190994 298 21ft 0kts
19-Jul-20 06:03 32.732098 -117.190688 20 22ft 12kts
19-Jul-20 06:04 32.731543 -117.185613 106 21ft 14kts
19-Jul-20 06:05 32.734937 -117.195754 285 203ft 107kts
19-Jul-20 06:06 32.746875 -117.218374 2 2106ft 91kts
19-Jul-20 06:07 32.763893 -117.216138 358 3249ft 93kts
19-Jul-20 06:08 32.783584 -117.218144 345 4504ft 94kts
19-Jul-20 06:09 32.804279 -117.224107 339 5720ft 105kts
19-Jul-20 06:10 32.833467 -117.235345 338 5989ft 150kts
19-Jul-20 06:11 32.870364 -117.251176 336 5987ft 161kts
19-Jul-20 06:12 32.886341 -117.258282 336 5982ft 163kts
19-Jul-20 06:13 32.927585 -117.276703 336 5980ft 163kts
19-Jul-20 06:14 32.967152 -117.294457 336 5973ft 163kts
19-Jul-20 06:15 33.009012 -117.313171 336 5970ft 162kts
19-Jul-20 06:16 33.050552 -117.331943 336 5972ft 162kts
19-Jul-20 06:17 33.091437 -117.350309 336 5969ft 162kts
19-Jul-20 06:18 33.133054 -117.369177 336 5972ft 163kts
19-Jul-20 06:19 33.175069 -117.388069 336 5975ft 162kts
19-Jul-20 06:20 33.216157 -117.406688 336 5977ft 163kts
19-Jul-20 06:21 33.250956 -117.430866 315 5979ft 160kts
19-Jul-20 06:22 33.280391 -117.464268 314 5981ft 159kts
19-Jul-20 06:23 33.308614 -117.496960 314 5979ft 159kts
19-Jul-20 06:24 33.336205 -117.529073 313 5980ft 158kts
19-Jul-20 06:25 33.363233 -117.560680 314 5980ft 159kts
19-Jul-20 06:26 33.393314 -117.595748 314 5980ft 158kts
19-Jul-20 06:27 33.426233 -117.634187 313 5980ft 159kts
19-Jul-20 06:28 33.454930 -117.667835 313 5985ft 158kts
19-Jul-20 06:29 33.480660 -117.694486 337 5984ft 163kts
19-Jul-20 06:30 33.517154 -117.703767 346 5988ft 164kts
19-Jul-20 06:31 33.554361 -117.710541 347 5990ft 165kts
19-Jul-20 06:32 33.592073 -117.717014 347 5991ft 165kts
19-Jul-20 06:33 33.629211 -117.723244 347 5989ft 166kts
19-Jul-20 06:35 33.658567 -117.717370 27 5987ft 175kts
19-Jul-20 06:36 33.687653 -117.695682 26 5986ft 174kts
19-Jul-20 06:37 33.732467 -117.663586 26 5980ft 174kts
19-Jul-20 06:38 33.779433 -117.629935 25 5977ft 173kts
19-Jul-20 06:39 33.827934 -117.594992 26 5972ft 174kts
19-Jul-20 06:40 33.874388 -117.561641 25 5977ft 174kts
19-Jul-20 06:41 33.916464 -117.529465 44 5974ft 155kts
19-Jul-20 06:42 33.942700 -117.477234 57 5236ft 152kts
19-Jul-20 06:43 33.964992 -117.428921 57 4988ft 130kts
19-Jul-20 06:44 33.984153 -117.387304 56 4995ft 123kts
19-Jul-20 06:45 34.003797 -117.347119 32 4998ft 119kts
19-Jul-20 06:46 34.033284 -117.352501 333 4620ft 107kts
19-Jul-20 06:47 34.053768 -117.375308 279 3928ft 117kts
19-Jul-20 06:48 34.054879 -117.411900 272 3108ft 98kts
19-Jul-20 06:49 34.054821 -117.444266 271 2898ft 93kts
19-Jul-20 06:50 34.054881 -117.476033 272 2694ft 100kts
19-Jul-20 06:51 34.054934 -117.507823 270 2199ft 94kts
19-Jul-20 06:52 34.055047 -117.539394 270 1667ft 96kts
19-Jul-20 06:53 34.056069 -117.570991 283 1249ft 94kts
19-Jul-20 06:53 34.056894 -117.593172 271 948ft 47kts
19-Jul-20 06:55 34.058374 -117.598429 312 947ft 13kts
19-Jul-20 06:55 34.059978 -117.600151 326 947ft 0kts

Navigation Log

Ident Type
Flight plan parsing failed, navigation log unavailable